createdAt,value
2023-01-13T00:01:15.913Z,32.40
2023-01-13T00:03:43.618Z,32.00
2023-01-13T00:06:15.248Z,29.83
2023-01-13T00:08:41.964Z,34.88
2023-01-13T00:11:09.817Z,33.63
2023-01-13T00:13:38.186Z,33.20
2023-01-13T00:16:07.081Z,53.13
2023-01-13T00:18:34.466Z,36.85
2023-01-13T00:21:11.688Z,38.60
2023-01-13T00:23:39.729Z,29.03
2023-01-13T00:26:12.557Z,28.73
2023-01-13T00:28:39.237Z,30.67
2023-01-13T00:31:27.622Z,29.10
2023-01-13T00:33:57.085Z,26.77
2023-01-13T00:36:23.727Z,28.83
2023-01-13T00:38:50.508Z,28.60
2023-01-13T00:41:19.976Z,33.03
2023-01-13T00:43:46.930Z,27.13
2023-01-13T00:46:16.250Z,26.23
2023-01-13T00:48:43.189Z,32.47
2023-01-13T00:51:10.046Z,25.67
2023-01-13T00:53:39.905Z,28.50
2023-01-13T00:56:18.265Z,28.27
2023-01-13T00:58:48.656Z,29.37
2023-01-13T01:01:21.684Z,27.53
2023-01-13T01:03:49.296Z,27.93
2023-01-13T01:06:19.189Z,26.43
2023-01-13T01:08:45.920Z,187.60
2023-01-13T01:11:18.192Z,25.27
2023-01-13T01:13:45.531Z,72.17
2023-01-13T01:16:15.220Z,23.07
2023-01-13T01:18:44.657Z,22.47
2023-01-13T01:21:12.150Z,22.43
2023-01-13T01:23:40.488Z,21.00
2023-01-13T01:26:11.971Z,25.63
2023-01-13T01:28:38.916Z,24.47
2023-01-13T01:31:20.261Z,25.03
2023-01-13T01:33:47.809Z,97.03
2023-01-13T01:36:16.742Z,80.83
2023-01-13T01:38:43.780Z,50.33
2023-01-13T01:41:19.906Z,21.07
2023-01-13T01:44:07.024Z,23.17
2023-01-13T01:46:35.435Z,34.63
2023-01-13T01:49:23.672Z,26.37
2023-01-13T01:51:55.602Z,24.53
2023-01-13T01:54:32.426Z,23.33
2023-01-13T01:56:59.352Z,22.83
2023-01-13T01:59:29.477Z,28.93
2023-01-13T02:01:56.481Z,24.47
2023-01-13T02:04:30.446Z,24.57
2023-01-13T02:06:58.093Z,23.80
2023-01-13T02:09:27.060Z,25.77
2023-01-13T02:12:23.102Z,23.47
2023-01-13T02:14:49.878Z,21.63
2023-01-13T02:17:19.499Z,19.23
2023-01-13T02:20:07.299Z,22.07
2023-01-13T02:23:03.923Z,17.93
2023-01-13T02:26:11.918Z,18.57
2023-01-13T02:29:12.074Z,19.60
2023-01-13T02:31:42.606Z,23.97
2023-01-13T02:34:40.437Z,21.77
2023-01-13T02:37:14.746Z,18.40
2023-01-13T02:39:52.948Z,18.15
2023-01-13T02:43:08.149Z,15.10
2023-01-13T02:45:48.858Z,19.20
2023-01-13T02:48:18.014Z,20.77
2023-01-13T02:50:50.101Z,19.57
2023-01-13T02:53:23.124Z,19.63
2023-01-13T02:55:53.495Z,17.20
2023-01-13T02:58:25.068Z,15.80
2023-01-13T03:00:51.863Z,16.98
2023-01-13T03:03:19.276Z,16.57
2023-01-13T03:05:49.704Z,15.10
2023-01-13T03:08:39.706Z,12.83
2023-01-13T03:11:09.977Z,13.03
2023-01-13T03:13:42.945Z,19.07
2023-01-13T03:16:09.814Z,16.80
2023-01-13T03:18:48.764Z,14.37
2023-01-13T03:21:35.942Z,14.37
2023-01-13T03:24:12.285Z,16.93
2023-01-13T03:26:57.735Z,64.97
2023-01-13T03:29:49.498Z,31.57
2023-01-13T03:32:28.221Z,31.13
2023-01-13T03:35:09.887Z,21.23
2023-01-13T03:37:41.218Z,18.17
2023-01-13T03:40:19.106Z,24.37
2023-01-13T03:43:09.590Z,25.07
2023-01-13T03:45:39.947Z,24.07
2023-01-13T03:48:15.037Z,22.00
2023-01-13T03:50:48.150Z,22.87
2023-01-13T03:53:22.952Z,23.77
2023-01-13T03:58:26.504Z,22.97
2023-01-13T04:01:00.199Z,22.02
2023-01-13T04:03:34.454Z,31.57
2023-01-13T04:06:17.167Z,25.98
2023-01-13T04:08:56.462Z,61.93
2023-01-13T04:11:38.844Z,35.67
2023-01-13T04:14:09.423Z,60.90
2023-01-13T04:16:37.743Z,23.83
2023-01-13T04:19:04.860Z,37.77
2023-01-13T04:21:31.703Z,29.63
2023-01-13T04:23:58.334Z,33.33
2023-01-13T04:26:25.081Z,48.30
2023-01-13T04:28:54.788Z,73.33
2023-01-13T04:31:21.854Z,55.43
2023-01-13T04:33:48.742Z,42.57
2023-01-13T04:36:15.877Z,43.43
2023-01-13T04:38:42.766Z,25.33
2023-01-13T04:41:09.439Z,23.73
2023-01-13T04:43:36.141Z,25.83
2023-01-13T04:46:02.968Z,35.33
2023-01-13T04:48:29.643Z,30.77
2023-01-13T04:50:56.316Z,23.30
2023-01-13T04:53:22.922Z,17.73
2023-01-13T04:55:49.877Z,23.57
2023-01-13T04:58:16.785Z,32.20
2023-01-13T05:00:44.004Z,33.40
2023-01-13T05:03:10.690Z,45.10
2023-01-13T05:05:38.224Z,52.23
2023-01-13T05:08:05.653Z,48.73
2023-01-13T05:10:32.495Z,46.20
2023-01-13T05:13:17.656Z,133.03
2023-01-13T05:18:33.102Z,67.40
2023-01-13T05:20:59.741Z,84.77
2023-01-13T05:23:45.044Z,104.97
2023-01-13T05:28:38.494Z,82.37
2023-01-13T05:31:05.308Z,63.10
2023-01-13T05:33:34.984Z,43.67
2023-01-13T05:36:03.482Z,54.03
2023-01-13T05:38:30.180Z,51.00
2023-01-13T05:41:18.093Z,47.53
2023-01-13T05:43:44.799Z,46.93
2023-01-13T05:46:12.645Z,27.17
2023-01-13T05:48:42.167Z,19.80
2023-01-13T05:51:10.995Z,22.10
2023-01-13T05:53:37.921Z,29.57
2023-01-13T05:56:06.716Z,36.30
2023-01-13T05:58:33.769Z,38.23
2023-01-13T06:01:02.593Z,39.80
2023-01-13T06:03:29.648Z,60.37
2023-01-13T06:05:59.446Z,56.40
2023-01-13T06:08:26.745Z,45.53
2023-01-13T06:10:53.776Z,57.87
2023-01-13T06:13:20.448Z,48.10
2023-01-13T06:15:47.168Z,41.63
2023-01-13T06:18:13.958Z,45.13
2023-01-13T06:20:40.654Z,53.67
2023-01-13T06:23:10.843Z,56.17
2023-01-13T06:25:56.726Z,55.70
2023-01-13T06:28:23.435Z,56.53
2023-01-13T06:30:55.900Z,45.03
2023-01-13T06:33:29.474Z,50.63
2023-01-13T06:36:00.545Z,43.10
2023-01-13T06:38:30.266Z,49.03
2023-01-13T06:40:57.092Z,44.30
2023-01-13T06:43:23.812Z,41.43
2023-01-13T06:45:56.494Z,37.63
2023-01-13T06:48:28.465Z,42.77
2023-01-13T06:50:55.471Z,41.87
2023-01-13T06:53:22.126Z,37.90
2023-01-13T06:55:50.324Z,38.43
2023-01-13T06:58:17.180Z,38.73
2023-01-13T07:00:43.834Z,44.87
2023-01-13T07:03:15.575Z,58.40
2023-01-13T07:05:44.199Z,43.70
2023-01-13T07:08:11.358Z,42.07
2023-01-13T07:10:38.318Z,36.30
2023-01-13T07:13:24.737Z,35.73
2023-01-13T07:16:00.076Z,41.57
2023-01-13T07:18:28.569Z,34.43
2023-01-13T07:20:57.300Z,40.67
2023-01-13T07:23:25.388Z,50.40
2023-01-13T07:25:52.070Z,46.53
2023-01-13T07:28:18.718Z,51.27
2023-01-13T07:30:45.522Z,45.07
2023-01-13T07:33:12.174Z,52.60
2023-01-13T07:35:39.031Z,48.53
2023-01-13T07:38:05.840Z,51.53
2023-01-13T07:40:32.650Z,50.07
2023-01-13T07:43:17.999Z,48.37
2023-01-13T07:45:44.933Z,54.43
2023-01-13T07:48:11.718Z,52.20
2023-01-13T07:50:38.597Z,57.00
2023-01-13T07:53:05.536Z,68.37
2023-01-13T07:55:32.295Z,57.85
2023-01-13T07:57:58.951Z,51.87
2023-01-13T08:00:25.697Z,60.92
2023-01-13T08:02:52.498Z,52.08
2023-01-13T08:05:19.189Z,59.63
2023-01-13T08:07:45.843Z,68.68
2023-01-13T08:10:12.559Z,57.30
2023-01-13T08:12:57.898Z,55.97
2023-01-13T08:17:51.335Z,54.10
2023-01-13T08:20:18.502Z,42.78
2023-01-13T08:22:45.272Z,35.90
2023-01-13T08:25:12.055Z,39.50
2023-01-13T08:27:39.091Z,43.45
2023-01-13T08:30:06.441Z,36.75
2023-01-13T08:32:33.188Z,40.72
2023-01-13T08:34:59.947Z,48.17
2023-01-13T08:37:26.798Z,44.15
2023-01-13T08:39:53.621Z,49.15
2023-01-13T08:42:20.340Z,31.35
2023-01-13T08:44:47.420Z,31.05
2023-01-13T08:47:14.148Z,26.00
2023-01-13T08:49:40.791Z,21.05
2023-01-13T08:52:08.219Z,19.85
2023-01-13T08:54:34.975Z,17.30
2023-01-13T08:57:03.421Z,31.92
2023-01-13T08:59:30.368Z,15.75
2023-01-13T09:01:57.329Z,14.60
2023-01-13T09:04:29.977Z,17.27
2023-01-13T09:06:57.164Z,19.05
2023-01-13T09:09:25.469Z,15.18
2023-01-13T09:12:10.746Z,17.65
2023-01-13T09:14:38.476Z,13.52
2023-01-13T09:17:05.325Z,22.23
2023-01-13T09:19:32.108Z,17.13
2023-01-13T09:21:59.077Z,16.88
2023-01-13T09:24:26.715Z,16.25
2023-01-13T09:26:53.670Z,20.88
2023-01-13T09:29:20.850Z,17.90
2023-01-13T09:31:47.818Z,14.40
2023-01-13T09:34:39.088Z,18.95
2023-01-13T09:37:07.126Z,17.45
2023-01-13T09:39:35.967Z,19.42
2023-01-13T09:42:30.511Z,20.75
2023-01-13T09:45:20.899Z,21.98
2023-01-13T09:48:07.264Z,21.25
2023-01-13T09:50:58.766Z,22.02
2023-01-13T09:53:40.599Z,27.85
2023-01-13T09:56:10.791Z,13.82
2023-01-13T09:58:37.628Z,12.75
2023-01-13T10:01:28.445Z,8.77
2023-01-13T10:03:55.283Z,12.38
2023-01-13T10:06:38.974Z,13.43
2023-01-13T10:09:06.300Z,11.40
2023-01-13T10:11:58.261Z,11.57
2023-01-13T10:14:34.673Z,15.10
2023-01-13T10:17:34.268Z,15.23
2023-01-13T10:20:24.871Z,14.73
2023-01-13T10:23:14.728Z,8.18
2023-01-13T10:26:26.945Z,19.23
2023-01-13T10:28:57.698Z,26.10
2023-01-13T10:31:25.537Z,20.20
2023-01-13T10:34:06.234Z,26.10
2023-01-13T10:36:33.797Z,24.70
2023-01-13T10:39:10.275Z,22.45
2023-01-13T10:41:36.931Z,21.65
2023-01-13T10:44:09.498Z,35.55
2023-01-13T10:46:54.341Z,47.35
2023-01-13T10:49:34.300Z,38.70
2023-01-13T10:52:02.685Z,56.88
2023-01-13T10:54:30.303Z,37.33
2023-01-13T10:57:18.463Z,28.25
2023-01-13T10:59:45.251Z,34.58
2023-01-13T11:02:25.824Z,28.33
2023-01-13T11:04:53.487Z,30.05
2023-01-13T11:07:36.043Z,27.63
2023-01-13T11:10:15.315Z,24.05
2023-01-13T11:13:04.353Z,26.80
2023-01-13T11:15:58.125Z,10.30
2023-01-13T11:19:02.427Z,20.90
2023-01-13T11:21:35.873Z,13.60
2023-01-13T11:24:23.831Z,14.48
2023-01-13T11:26:52.941Z,11.20
2023-01-13T11:29:38.413Z,12.60
2023-01-13T11:32:17.651Z,10.48
2023-01-13T11:34:47.644Z,9.60
2023-01-13T11:37:26.215Z,11.35
2023-01-13T11:40:01.803Z,15.57
2023-01-13T11:42:51.166Z,10.98
2023-01-13T11:45:51.180Z,5.40
2023-01-13T11:48:21.716Z,13.55
2023-01-13T11:51:04.743Z,11.45
2023-01-13T11:53:50.449Z,11.25
2023-01-13T11:56:17.225Z,13.88
2023-01-13T11:59:08.851Z,19.05
2023-01-13T12:02:00.628Z,13.05
2023-01-13T12:04:49.418Z,12.85
2023-01-13T12:07:54.318Z,13.55
2023-01-13T12:10:33.788Z,10.45
2023-01-13T12:13:22.129Z,14.73
2023-01-13T12:15:51.545Z,18.27
2023-01-13T12:18:35.986Z,14.95
2023-01-13T12:21:09.473Z,11.98
2023-01-13T12:23:47.417Z,15.40
2023-01-13T12:26:16.744Z,22.15
2023-01-13T12:29:07.574Z,16.88
2023-01-13T12:31:38.579Z,10.15
2023-01-13T12:34:43.221Z,12.73
2023-01-13T12:37:48.658Z,11.43
2023-01-13T12:40:38.792Z,27.05
2023-01-13T12:43:36.196Z,22.73
2023-01-13T12:46:21.610Z,23.67
2023-01-13T12:48:53.075Z,29.35
2023-01-13T12:51:27.236Z,16.83
2023-01-13T12:53:57.842Z,14.48
2023-01-13T12:56:39.801Z,14.05
2023-01-13T12:59:19.183Z,11.00
2023-01-13T13:01:48.684Z,11.70
2023-01-13T13:04:43.000Z,14.57
2023-01-13T13:07:19.935Z,31.15
2023-01-13T13:09:53.204Z,24.17
2023-01-13T13:13:11.220Z,16.58
2023-01-13T13:15:38.818Z,12.18
2023-01-13T13:18:06.359Z,11.80
2023-01-13T13:20:55.097Z,13.40
2023-01-13T13:23:40.255Z,15.60
2023-01-13T13:26:20.240Z,23.95
2023-01-13T13:29:00.973Z,21.08
2023-01-13T13:31:38.815Z,17.38
2023-01-13T13:34:11.027Z,18.23
2023-01-13T13:37:15.605Z,21.83
2023-01-13T13:40:02.577Z,28.15
2023-01-13T13:42:56.829Z,27.05
2023-01-13T13:45:45.043Z,27.70
2023-01-13T13:48:27.174Z,29.52
2023-01-13T13:51:01.960Z,28.58
2023-01-13T13:53:33.425Z,36.45
2023-01-13T13:56:02.383Z,28.83
2023-01-13T13:58:31.433Z,21.90
2023-01-13T14:00:59.878Z,24.15
2023-01-13T14:03:32.025Z,26.48
2023-01-13T14:06:01.335Z,30.33
2023-01-13T14:08:31.219Z,56.28
2023-01-13T14:10:57.963Z,37.30
2023-01-13T14:13:30.635Z,30.45
2023-01-13T14:16:00.167Z,27.60
2023-01-13T14:18:28.836Z,23.42
2023-01-13T14:21:00.738Z,25.67
2023-01-13T14:23:31.246Z,47.42
2023-01-13T14:26:09.201Z,35.85
2023-01-13T14:28:38.218Z,39.47
2023-01-13T14:31:08.207Z,85.00
2023-01-13T14:33:49.977Z,131.68
2023-01-13T14:36:22.560Z,119.95
2023-01-13T14:39:04.684Z,137.05
2023-01-13T14:41:39.354Z,105.30
2023-01-13T14:44:29.572Z,102.85
2023-01-13T14:46:58.879Z,52.30
2023-01-13T14:49:36.060Z,25.70
2023-01-13T14:52:24.105Z,44.35
2023-01-13T14:54:53.360Z,49.92
2023-01-13T14:57:32.162Z,55.55
2023-01-13T15:00:04.883Z,48.22
2023-01-13T15:02:33.051Z,45.28
2023-01-13T15:05:24.791Z,54.15
2023-01-13T15:08:00.413Z,72.57
2023-01-13T15:10:30.813Z,64.38
2023-01-13T15:13:01.115Z,69.18
2023-01-13T15:15:33.085Z,77.03
2023-01-13T15:18:01.530Z,62.03
2023-01-13T15:23:01.507Z,63.30
2023-01-13T15:25:40.549Z,69.60
2023-01-13T15:28:14.685Z,69.57
2023-01-13T15:30:41.427Z,72.85
2023-01-13T15:33:11.778Z,64.28
2023-01-13T15:35:41.990Z,77.00
2023-01-13T15:38:13.881Z,83.63
2023-01-13T15:40:41.511Z,83.00
2023-01-13T15:43:32.951Z,116.15
2023-01-13T15:46:20.166Z,111.68
2023-01-13T15:48:53.157Z,100.07
2023-01-13T15:51:21.697Z,79.63
2023-01-13T15:53:48.463Z,84.25
2023-01-13T15:56:24.683Z,67.32
2023-01-13T15:58:51.526Z,76.30
2023-01-13T16:01:18.466Z,58.00
2023-01-13T16:03:45.725Z,68.38
2023-01-13T16:06:19.471Z,61.53
2023-01-13T16:08:46.263Z,68.40
2023-01-13T16:11:13.634Z,58.67
2023-01-13T16:13:40.773Z,60.28
2023-01-13T16:16:25.307Z,83.72
2023-01-13T16:18:53.066Z,94.10
2023-01-13T16:21:21.050Z,122.65
2023-01-13T16:23:49.271Z,243.25
2023-01-13T16:26:29.357Z,124.78
2023-01-13T16:28:58.109Z,94.65
2023-01-13T16:31:32.195Z,83.60
2023-01-13T16:34:01.370Z,72.40
2023-01-13T16:36:30.250Z,72.88
2023-01-13T16:38:57.323Z,58.80
2023-01-13T16:41:26.928Z,53.65
2023-01-13T16:43:54.093Z,46.75
2023-01-13T16:46:23.836Z,63.00
2023-01-13T16:48:53.091Z,81.38
2023-01-13T16:51:20.964Z,84.25
2023-01-13T16:53:48.250Z,89.70
2023-01-13T16:56:23.351Z,114.72
2023-01-13T16:58:52.042Z,123.25
2023-01-13T17:01:21.645Z,114.82
2023-01-13T17:03:51.858Z,92.47
2023-01-13T17:06:25.583Z,82.05
2023-01-13T17:08:53.419Z,76.13
2023-01-13T17:11:21.023Z,123.55
2023-01-13T17:13:47.916Z,77.28
2023-01-13T17:16:20.778Z,66.68
2023-01-13T17:18:48.406Z,55.40
2023-01-13T17:21:15.799Z,77.85
2023-01-13T17:23:44.098Z,75.00
2023-01-13T17:26:24.535Z,76.00
2023-01-13T17:28:51.502Z,60.10
2023-01-13T17:31:18.231Z,54.78
2023-01-13T17:33:45.020Z,75.18
2023-01-13T17:36:11.720Z,77.97
2023-01-13T17:38:38.379Z,137.45
2023-01-13T17:41:05.616Z,113.00
2023-01-13T17:43:32.596Z,117.47
2023-01-13T17:45:59.444Z,114.55
2023-01-13T17:48:26.799Z,84.03
2023-01-13T17:50:53.750Z,63.38
2023-01-13T17:53:21.007Z,63.22
2023-01-13T17:55:55.165Z,118.38
2023-01-13T17:58:23.416Z,95.22
2023-01-13T18:00:50.403Z,80.78
2023-01-13T18:03:17.896Z,80.80
2023-01-13T18:05:45.409Z,83.97
2023-01-13T18:08:12.136Z,86.35
2023-01-13T18:10:39.037Z,104.53
2023-01-13T18:13:06.703Z,86.57
2023-01-13T18:15:33.427Z,60.58
2023-01-13T18:18:00.224Z,67.03
2023-01-13T18:20:45.647Z,78.45
2023-01-13T18:23:36.334Z,63.35
2023-01-13T18:26:35.992Z,76.47
2023-01-13T18:29:02.733Z,85.60
2023-01-13T18:31:29.610Z,90.13
2023-01-13T18:33:56.617Z,67.73
2023-01-13T18:36:23.480Z,67.77
2023-01-13T18:38:50.825Z,60.00
2023-01-13T18:41:36.869Z,61.97
2023-01-13T18:44:04.205Z,67.10
2023-01-13T18:46:31.005Z,68.90
2023-01-13T18:48:58.118Z,68.53
2023-01-13T18:51:24.860Z,79.33
2023-01-13T18:53:51.778Z,97.50
2023-01-13T18:56:18.999Z,80.30
2023-01-13T18:58:52.664Z,86.37
2023-01-13T19:01:25.706Z,85.47
2023-01-13T19:03:57.307Z,86.93
2023-01-13T19:06:27.752Z,86.40
2023-01-13T19:08:55.711Z,75.93
2023-01-13T19:11:24.204Z,85.47
2023-01-13T19:13:52.537Z,58.27
2023-01-13T19:16:23.921Z,53.33
2023-01-13T19:18:50.650Z,43.83
2023-01-13T19:21:17.439Z,41.37
2023-01-13T19:23:44.220Z,41.27
2023-01-13T19:26:12.362Z,48.73
2023-01-13T19:28:40.824Z,31.37
2023-01-13T19:31:09.681Z,28.20
2023-01-13T19:33:39.577Z,29.00
2023-01-13T19:36:07.700Z,28.20
2023-01-13T19:38:37.012Z,29.23
2023-01-13T19:41:11.525Z,27.97
2023-01-13T19:43:56.758Z,32.10
2023-01-13T19:46:26.104Z,44.15
2023-01-13T19:48:52.859Z,40.57
2023-01-13T19:51:19.804Z,36.60
2023-01-13T19:53:46.985Z,48.63
2023-01-13T19:56:15.382Z,34.40
2023-01-13T19:58:42.449Z,35.20
2023-01-13T20:01:10.343Z,30.47
2023-01-13T20:03:38.462Z,30.60
2023-01-13T20:06:10.420Z,37.10
2023-01-13T20:08:37.507Z,40.57
2023-01-13T20:11:22.768Z,73.83
2023-01-13T20:16:16.692Z,57.50
2023-01-13T20:18:43.738Z,66.33
2023-01-13T20:21:10.754Z,74.73
2023-01-13T20:23:37.597Z,79.77
2023-01-13T20:26:07.668Z,86.03
2023-01-13T20:28:37.434Z,98.17
2023-01-13T20:31:12.073Z,88.37
2023-01-13T20:33:39.229Z,56.63
2023-01-13T20:36:07.551Z,37.90
2023-01-13T20:38:37.861Z,39.43
2023-01-13T20:41:32.688Z,52.80
2023-01-13T20:43:59.338Z,49.55
2023-01-13T20:46:26.218Z,29.67
2023-01-13T20:48:52.938Z,28.52
2023-01-13T20:51:19.661Z,26.70
2023-01-13T20:53:46.348Z,29.00
2023-01-13T20:56:14.515Z,28.37
2023-01-13T20:58:41.373Z,38.03
2023-01-13T21:01:08.285Z,42.60
2023-01-13T21:03:35.108Z,45.70
2023-01-13T21:06:01.840Z,39.10
2023-01-13T21:08:28.704Z,39.93
2023-01-13T21:11:10.532Z,40.40
2023-01-13T21:13:55.847Z,39.03
2023-01-13T21:19:07.132Z,46.77
2023-01-13T21:21:34.237Z,51.20
2023-01-13T21:24:00.925Z,54.17
2023-01-13T21:26:27.590Z,50.27
2023-01-13T21:28:58.269Z,47.90
2023-01-13T21:31:27.055Z,60.23
2023-01-13T21:33:55.298Z,57.40
2023-01-13T21:36:22.702Z,54.17
2023-01-13T21:38:58.048Z,40.60
2023-01-13T21:41:58.010Z,38.57
2023-01-13T21:44:43.779Z,32.77
2023-01-13T21:47:37.993Z,35.13
2023-01-13T21:50:09.536Z,61.53
2023-01-13T21:52:36.851Z,46.10
2023-01-13T21:55:22.885Z,37.43
2023-01-13T21:57:50.761Z,28.27
2023-01-13T22:00:19.493Z,27.20
2023-01-13T22:02:47.367Z,26.23
2023-01-13T22:05:16.354Z,25.90
2023-01-13T22:07:43.346Z,25.20
2023-01-13T22:10:19.300Z,22.55
2023-01-13T22:12:47.726Z,25.07
2023-01-13T22:15:16.516Z,27.70
2023-01-13T22:17:45.530Z,29.23
2023-01-13T22:20:13.110Z,33.17
2023-01-13T22:22:40.370Z,33.80
2023-01-13T22:25:11.100Z,36.83
2023-01-13T22:27:43.454Z,33.47
2023-01-13T22:30:18.400Z,35.77
2023-01-13T22:32:46.506Z,43.65
2023-01-13T22:35:15.453Z,40.10
2023-01-13T22:37:42.663Z,40.13
2023-01-13T22:40:11.686Z,37.43
2023-01-13T22:42:42.768Z,36.13
2023-01-13T22:45:13.790Z,39.28
2023-01-13T22:47:40.620Z,36.00
2023-01-13T22:50:08.259Z,30.63
2023-01-13T22:52:35.547Z,45.17
2023-01-13T22:55:02.264Z,35.37
2023-01-13T22:57:36.379Z,40.28
2023-01-13T23:00:10.576Z,45.57
2023-01-13T23:02:38.369Z,35.40
2023-01-13T23:05:05.468Z,40.13
2023-01-13T23:07:32.209Z,33.47
2023-01-13T23:09:58.850Z,40.33
2023-01-13T23:12:25.747Z,32.93
2023-01-13T23:14:52.542Z,32.67
2023-01-13T23:17:19.211Z,32.37
2023-01-13T23:19:46.101Z,27.13
2023-01-13T23:22:13.610Z,29.17
2023-01-13T23:24:40.357Z,27.87
2023-01-13T23:27:07.190Z,20.33
2023-01-13T23:29:33.925Z,21.00
2023-01-13T23:32:00.598Z,22.17
2023-01-13T23:34:27.417Z,22.07
2023-01-13T23:36:54.080Z,28.60
2023-01-13T23:39:20.749Z,26.73
2023-01-13T23:41:47.535Z,26.57
2023-01-13T23:44:14.152Z,22.40
2023-01-13T23:46:40.912Z,24.67
2023-01-13T23:49:07.634Z,22.97
2023-01-13T23:51:34.499Z,22.87
2023-01-13T23:54:02.522Z,29.10
2023-01-13T23:56:31.412Z,27.47
2023-01-13T23:58:58.792Z,26.37
